createdAt,value
2019-02-21T00:00:10.834Z,99.90
2019-02-21T00:02:42.343Z,99.90
2019-02-21T00:05:14.326Z,99.90
2019-02-21T00:07:44.918Z,99.90
2019-02-21T00:10:15.672Z,99.90
2019-02-21T00:12:46.314Z,99.90
2019-02-21T00:15:16.948Z,99.90
2019-02-21T00:17:47.849Z,99.90
2019-02-21T00:20:18.242Z,99.90
2019-02-21T00:22:48.995Z,99.90
2019-02-21T00:25:19.974Z,99.90
2019-02-21T00:27:49.938Z,99.90
2019-02-21T00:30:20.488Z,99.90
2019-02-21T00:32:50.742Z,99.90
2019-02-21T00:35:22.559Z,99.90
2019-02-21T00:37:53.368Z,99.90
2019-02-21T00:40:24.150Z,99.90
2019-02-21T00:42:55.104Z,99.90
2019-02-21T00:45:25.356Z,99.90
2019-02-21T00:47:56.273Z,99.90
2019-02-21T00:50:27.258Z,99.90
2019-02-21T00:52:58.818Z,99.90
2019-02-21T00:55:29.615Z,99.90
2019-02-21T00:57:59.942Z,99.90
2019-02-21T01:00:30.921Z,99.90
2019-02-21T01:03:01.861Z,99.90
2019-02-21T01:05:32.629Z,99.90
2019-02-21T01:08:03.218Z,99.90
2019-02-21T01:10:33.608Z,99.90
2019-02-21T01:13:04.464Z,99.90
2019-02-21T01:15:35.058Z,99.90
2019-02-21T01:18:05.917Z,99.90
2019-02-21T01:20:36.108Z,99.90
2019-02-21T01:23:06.571Z,99.90
2019-02-21T01:25:37.203Z,99.90
2019-02-21T01:28:07.875Z,99.90
2019-02-21T01:30:38.736Z,99.90
2019-02-21T01:33:09.109Z,99.90
2019-02-21T01:35:39.252Z,99.90
2019-02-21T01:38:09.709Z,99.90
2019-02-21T01:40:40.720Z,99.90
2019-02-21T01:43:11.479Z,99.90
2019-02-21T01:45:42.245Z,99.90
2019-02-21T01:48:12.874Z,99.90
2019-02-21T01:50:43.163Z,99.90
2019-02-21T01:53:13.945Z,99.90
2019-02-21T01:55:44.750Z,99.90
2019-02-21T01:58:15.390Z,99.90
2019-02-21T02:00:46.476Z,99.90
2019-02-21T02:03:17.172Z,99.90
2019-02-21T02:05:47.564Z,99.90
2019-02-21T02:08:18.504Z,99.90
2019-02-21T02:10:49.594Z,99.90
2019-02-21T02:13:24.559Z,99.90
2019-02-21T02:15:52.835Z,99.90
2019-02-21T02:18:23.163Z,99.90
2019-02-21T02:20:54.117Z,99.90
2019-02-21T02:23:24.321Z,99.90
2019-02-21T02:25:54.732Z,99.90
2019-02-21T02:28:25.280Z,99.90
2019-02-21T02:30:55.645Z,99.90
2019-02-21T02:33:26.042Z,99.90
2019-02-21T02:35:56.883Z,99.90
2019-02-21T02:38:27.490Z,99.90
2019-02-21T02:40:57.719Z,99.90
2019-02-21T02:43:27.781Z,99.90
2019-02-21T02:45:58.108Z,99.90
2019-02-21T02:48:28.621Z,99.90
2019-02-21T02:50:59.391Z,99.90
2019-02-21T02:53:29.686Z,99.90
2019-02-21T02:55:59.666Z,99.90
2019-02-21T02:58:30.455Z,99.90
2019-02-21T03:01:01.123Z,99.90
2019-02-21T03:03:31.557Z,99.90
2019-02-21T03:06:02.434Z,99.90
2019-02-21T03:08:32.770Z,99.90
2019-02-21T03:11:03.583Z,99.90
2019-02-21T03:13:34.081Z,99.90
2019-02-21T03:16:04.694Z,99.90
2019-02-21T03:18:34.986Z,99.90
2019-02-21T03:21:05.598Z,99.90
2019-02-21T03:23:37.167Z,99.90
2019-02-21T03:26:07.970Z,99.90
2019-02-21T03:28:38.205Z,99.90
2019-02-21T03:31:09.430Z,99.90
2019-02-21T03:33:39.883Z,99.90
2019-02-21T03:36:10.274Z,99.90
2019-02-21T03:38:41.141Z,99.90
2019-02-21T03:41:11.606Z,99.90
2019-02-21T03:43:42.224Z,99.90
2019-02-21T03:46:13.957Z,99.90
2019-02-21T03:48:44.837Z,99.90
2019-02-21T03:51:14.814Z,99.90
2019-02-21T03:53:45.738Z,99.90
2019-02-21T03:56:16.409Z,99.90
2019-02-21T03:58:47.351Z,99.90
2019-02-21T04:01:17.306Z,99.90
2019-02-21T04:03:47.676Z,99.90
2019-02-21T04:06:19.519Z,99.90
2019-02-21T04:08:49.579Z,99.90
2019-02-21T04:11:20.115Z,99.90
2019-02-21T04:13:50.068Z,99.90
2019-02-21T04:16:20.694Z,99.90
2019-02-21T04:18:51.282Z,99.90
2019-02-21T04:21:21.900Z,99.90
2019-02-21T04:23:52.682Z,99.90
2019-02-21T04:26:22.994Z,99.90
2019-02-21T04:28:53.390Z,99.90
2019-02-21T04:31:23.508Z,99.90
2019-02-21T04:33:53.808Z,99.90
2019-02-21T04:36:24.842Z,99.90
2019-02-21T04:38:55.508Z,99.90
2019-02-21T04:41:26.471Z,99.90
2019-02-21T04:43:56.998Z,99.90
2019-02-21T04:46:27.551Z,99.90
2019-02-21T04:48:58.168Z,99.90
2019-02-21T04:51:28.859Z,99.90
2019-02-21T04:53:59.411Z,99.90
2019-02-21T04:56:29.967Z,99.90
2019-02-21T04:59:00.590Z,99.90
2019-02-21T05:01:31.397Z,99.90
2019-02-21T05:04:04.902Z,99.90
2019-02-21T05:06:35.132Z,99.90
2019-02-21T05:09:07.467Z,99.90
2019-02-21T05:11:38.427Z,99.90
2019-02-21T05:14:09.123Z,99.90
2019-02-21T05:16:39.528Z,99.90
2019-02-21T05:19:10.046Z,99.90
2019-02-21T05:21:40.633Z,99.90
2019-02-21T05:24:11.434Z,99.90
2019-02-21T05:26:45.433Z,99.90
2019-02-21T05:29:15.976Z,99.90
2019-02-21T05:31:56.311Z,99.90
2019-02-21T05:34:35.403Z,99.90
2019-02-21T05:37:14.266Z,99.90
2019-02-21T05:40:14.617Z,99.90
2019-02-21T05:43:00.701Z,99.90
2019-02-21T05:45:47.554Z,99.90
2019-02-21T05:48:40.301Z,99.90
2019-02-21T05:51:16.596Z,99.90
2019-02-21T05:53:54.155Z,99.90
2019-02-21T05:56:32.299Z,99.90
2019-02-21T05:59:37.065Z,99.90
2019-02-21T06:02:35.209Z,99.90
2019-02-21T06:05:27.237Z,99.90
2019-02-21T06:08:15.387Z,99.90
2019-02-21T06:11:23.048Z,99.90
2019-02-21T06:14:21.326Z,99.90
2019-02-21T06:17:09.325Z,99.90
2019-02-21T06:19:58.980Z,99.90
2019-02-21T06:22:39.069Z,99.90
2019-02-21T06:25:20.390Z,99.90
2019-02-21T06:28:01.665Z,99.90
2019-02-21T06:30:36.509Z,99.90
2019-02-21T06:33:07.337Z,99.90
2019-02-21T06:35:37.645Z,99.90
2019-02-21T06:38:07.933Z,99.90
2019-02-21T06:40:38.346Z,99.90
2019-02-21T06:43:08.444Z,99.90
2019-02-21T06:45:38.809Z,99.90
2019-02-21T06:48:09.238Z,99.90
2019-02-21T06:50:39.648Z,99.90
2019-02-21T06:53:10.639Z,99.90
2019-02-21T06:55:41.220Z,99.90
2019-02-21T06:58:12.047Z,99.90
2019-02-21T07:00:42.766Z,99.90
2019-02-21T07:03:16.121Z,99.90
2019-02-21T07:05:45.961Z,99.90
2019-02-21T07:08:39.932Z,99.90
2019-02-21T07:11:20.639Z,99.90
2019-02-21T07:13:52.188Z,99.90
2019-02-21T07:16:22.806Z,99.90
2019-02-21T07:18:52.997Z,99.90
2019-02-21T07:21:23.740Z,99.90
2019-02-21T07:23:57.046Z,99.90
2019-02-21T07:26:28.116Z,99.90
2019-02-21T07:28:59.163Z,99.90
2019-02-21T07:31:32.430Z,99.90
2019-02-21T07:34:02.126Z,99.90
2019-02-21T07:36:32.622Z,99.90
2019-02-21T07:39:16.470Z,99.90
2019-02-21T07:41:36.682Z,99.90
2019-02-21T07:44:12.040Z,99.90
2019-02-21T07:46:39.531Z,99.90
2019-02-21T07:49:09.572Z,99.90
2019-02-21T07:51:41.476Z,99.90
2019-02-21T07:54:13.438Z,99.90
2019-02-21T07:56:44.388Z,99.90
2019-02-21T07:59:15.308Z,99.90
2019-02-21T08:01:45.914Z,99.90
2019-02-21T08:04:16.546Z,99.90
2019-02-21T08:06:47.071Z,99.90
2019-02-21T08:09:18.944Z,99.90
2019-02-21T08:11:49.225Z,99.90
2019-02-21T08:14:19.901Z,99.90
2019-02-21T08:16:49.915Z,99.90
2019-02-21T08:19:20.208Z,99.90
2019-02-21T08:21:50.846Z,99.90
2019-02-21T08:24:21.115Z,99.90
2019-02-21T08:26:51.711Z,99.90
2019-02-21T08:29:22.375Z,99.90
2019-02-21T08:31:52.424Z,99.90
2019-02-21T08:34:26.650Z,99.90
2019-02-21T08:36:57.206Z,99.90
2019-02-21T08:39:28.259Z,99.90
2019-02-21T08:41:58.935Z,99.90
2019-02-21T08:44:29.635Z,99.90
2019-02-21T08:46:59.697Z,99.90
2019-02-21T08:49:31.084Z,99.90
2019-02-21T08:52:01.674Z,99.90
2019-02-21T08:54:32.492Z,99.90
2019-02-21T08:57:03.631Z,99.90
2019-02-21T08:59:34.667Z,99.90
2019-02-21T09:02:05.227Z,99.90
2019-02-21T09:04:36.187Z,99.90
2019-02-21T09:07:07.068Z,99.90
2019-02-21T09:09:38.445Z,99.90
2019-02-21T09:12:09.041Z,99.90
2019-02-21T09:14:39.843Z,99.90
2019-02-21T09:17:10.175Z,99.90
2019-02-21T09:19:40.665Z,99.90
2019-02-21T09:22:11.576Z,99.90
2019-02-21T09:24:42.614Z,99.90
2019-02-21T09:27:13.701Z,99.90
2019-02-21T09:29:44.663Z,99.90
2019-02-21T09:32:15.483Z,99.90
2019-02-21T09:34:46.291Z,99.90
2019-02-21T09:37:17.167Z,99.90
2019-02-21T09:39:47.898Z,99.90
2019-02-21T09:42:18.362Z,99.90
2019-02-21T09:44:49.858Z,99.90
2019-02-21T09:47:20.664Z,99.90
2019-02-21T09:49:51.292Z,99.90
2019-02-21T09:52:21.893Z,99.90
2019-02-21T09:54:52.176Z,99.90
2019-02-21T09:57:22.485Z,99.90
2019-02-21T09:59:53.243Z,99.90
2019-02-21T10:02:23.788Z,99.90
2019-02-21T10:05:04.209Z,99.90
2019-02-21T10:07:26.103Z,99.90
2019-02-21T10:09:57.200Z,99.90
2019-02-21T10:12:27.683Z,99.90
2019-02-21T10:14:58.475Z,99.90
2019-02-21T10:17:28.958Z,99.90
2019-02-21T10:19:59.732Z,99.90
2019-02-21T10:22:30.709Z,99.90
2019-02-21T10:25:00.934Z,99.90
2019-02-21T10:27:31.509Z,99.90
2019-02-21T10:30:01.928Z,99.90
2019-02-21T10:32:32.167Z,99.90
2019-02-21T10:35:02.553Z,99.90
2019-02-21T10:37:33.617Z,99.90
2019-02-21T10:40:03.937Z,99.90
2019-02-21T10:42:34.277Z,99.90
2019-02-21T10:45:05.642Z,99.90
2019-02-21T10:47:36.483Z,99.90
2019-02-21T10:50:08.639Z,99.90
2019-02-21T10:52:41.564Z,99.90
2019-02-21T10:55:14.181Z,99.90
2019-02-21T10:57:48.163Z,99.90
2019-02-21T11:00:24.870Z,99.90
2019-02-21T11:02:56.703Z,99.90
2019-02-21T11:05:28.156Z,99.90
2019-02-21T11:07:59.253Z,99.90
2019-02-21T11:10:30.707Z,99.90
2019-02-21T11:13:01.951Z,99.90
2019-02-21T11:15:32.705Z,99.90
2019-02-21T11:18:03.063Z,99.90
2019-02-21T11:20:33.027Z,99.90
2019-02-21T11:23:03.641Z,99.90
2019-02-21T11:25:34.186Z,99.90
2019-02-21T11:28:04.634Z,99.90
2019-02-21T11:30:35.048Z,99.90
2019-02-21T11:33:05.206Z,99.90
2019-02-21T11:35:35.606Z,99.90
2019-02-21T11:38:06.037Z,99.90
2019-02-21T11:40:37.122Z,99.90
2019-02-21T11:43:07.637Z,99.90
2019-02-21T11:45:37.979Z,99.90
2019-02-21T11:48:09.361Z,99.90
2019-02-21T11:50:41.142Z,99.90
2019-02-21T11:53:11.628Z,99.90
2019-02-21T11:55:42.359Z,99.90
2019-02-21T11:58:13.210Z,99.90
2019-02-21T12:00:43.726Z,99.90
2019-02-21T12:03:14.220Z,99.90
2019-02-21T12:05:44.386Z,99.90
2019-02-21T12:08:15.250Z,99.90
2019-02-21T12:10:45.690Z,99.90
2019-02-21T12:13:15.700Z,99.90
2019-02-21T12:15:46.016Z,99.90
2019-02-21T12:18:16.992Z,99.90
2019-02-21T12:20:47.991Z,99.90
2019-02-21T12:23:18.360Z,99.90
2019-02-21T12:25:48.881Z,99.90
2019-02-21T12:28:19.462Z,99.90
2019-02-21T12:30:50.002Z,99.90
2019-02-21T12:33:19.986Z,99.90
2019-02-21T12:35:50.863Z,99.90
2019-02-21T12:38:21.660Z,99.90
2019-02-21T12:40:52.649Z,99.90
2019-02-21T12:43:22.843Z,99.90
2019-02-21T12:45:59.540Z,99.90
2019-02-21T12:48:29.846Z,99.90
2019-02-21T12:51:00.597Z,99.90
2019-02-21T12:53:31.140Z,99.90
2019-02-21T12:56:01.679Z,97.50
2019-02-21T12:58:32.229Z,96.10
2019-02-21T13:01:03.019Z,94.40
2019-02-21T13:03:33.895Z,94.00
2019-02-21T13:06:04.968Z,94.40
2019-02-21T13:08:35.733Z,95.50
2019-02-21T13:11:06.865Z,96.30
2019-02-21T13:13:37.343Z,97.40
2019-02-21T13:16:08.169Z,98.50
2019-02-21T13:18:38.259Z,99.60
2019-02-21T13:21:08.352Z,99.90
2019-02-21T13:23:39.218Z,99.90
2019-02-21T13:26:09.633Z,99.90
2019-02-21T13:28:40.157Z,99.90
2019-02-21T13:31:10.867Z,99.90
2019-02-21T13:33:41.423Z,99.90
2019-02-21T13:36:11.741Z,99.90
2019-02-21T13:38:42.045Z,99.90
2019-02-21T13:41:12.591Z,99.90
2019-02-21T13:43:43.183Z,99.90
2019-02-21T13:46:14.015Z,99.90
2019-02-21T13:48:44.889Z,99.90
2019-02-21T13:51:15.481Z,99.90
2019-02-21T13:53:46.095Z,98.10
2019-02-21T13:56:16.793Z,97.90
2019-02-21T13:58:47.384Z,97.80
2019-02-21T14:01:17.546Z,97.70
2019-02-21T14:03:48.801Z,97.80
2019-02-21T14:06:19.568Z,98.20
2019-02-21T14:08:50.085Z,97.30
2019-02-21T14:11:21.107Z,94.90
2019-02-21T14:13:51.775Z,92.80
2019-02-21T14:16:21.799Z,90.80
2019-02-21T14:18:51.617Z,88.80
2019-02-21T14:21:22.261Z,86.50
2019-02-21T14:23:52.907Z,85.20
2019-02-21T14:26:23.811Z,83.80
2019-02-21T14:28:54.452Z,80.60
2019-02-21T14:31:24.813Z,79.90
2019-02-21T14:33:55.099Z,77.70
2019-02-21T14:36:25.691Z,76.60
2019-02-21T14:38:55.813Z,76.70
2019-02-21T14:41:27.185Z,76.20
2019-02-21T14:44:00.303Z,76.20
2019-02-21T14:46:29.829Z,75.60
2019-02-21T14:49:00.090Z,75.40
2019-02-21T14:51:31.050Z,75.80
2019-02-21T14:54:02.046Z,75.20
2019-02-21T14:56:32.506Z,76.20
2019-02-21T14:59:03.265Z,75.40
2019-02-21T15:01:34.208Z,75.70
2019-02-21T15:04:04.572Z,75.40
2019-02-21T15:06:35.281Z,75.40
2019-02-21T15:09:07.458Z,76.10
2019-02-21T15:11:37.965Z,77.80
2019-02-21T15:14:08.732Z,80.20
2019-02-21T15:16:38.968Z,82.40
2019-02-21T15:19:09.392Z,84.40
2019-02-21T15:21:40.061Z,86.30
2019-02-21T15:24:09.991Z,88.50
2019-02-21T15:26:39.964Z,90.20
2019-02-21T15:29:10.204Z,90.80
2019-02-21T15:31:41.715Z,91.30
2019-02-21T15:34:12.179Z,91.80
2019-02-21T15:36:42.522Z,92.40
2019-02-21T15:39:13.080Z,93.00
2019-02-21T15:41:43.604Z,93.90
2019-02-21T15:44:13.890Z,94.20
2019-02-21T15:46:44.586Z,94.70
2019-02-21T15:49:15.103Z,95.00
2019-02-21T15:51:45.623Z,95.50
2019-02-21T15:54:15.788Z,95.70
2019-02-21T15:56:46.122Z,96.00
2019-02-21T15:59:16.748Z,96.10
2019-02-21T16:01:47.975Z,96.50
2019-02-21T16:04:18.952Z,96.70
2019-02-21T16:06:51.736Z,96.90
2019-02-21T16:09:21.674Z,97.30
2019-02-21T16:11:51.880Z,97.40
2019-02-21T16:14:22.418Z,97.50
2019-02-21T16:16:53.243Z,97.80
2019-02-21T16:19:23.693Z,97.90
2019-02-21T16:21:54.790Z,98.10
2019-02-21T16:24:25.488Z,98.30
2019-02-21T16:26:56.098Z,98.60
2019-02-21T16:29:26.230Z,98.90
2019-02-21T16:31:56.847Z,99.20
2019-02-21T16:34:27.455Z,99.40
2019-02-21T16:37:02.492Z,99.60
2019-02-21T16:39:29.397Z,99.90
2019-02-21T16:41:59.812Z,99.90
2019-02-21T16:44:30.082Z,99.90
2019-02-21T16:47:00.493Z,99.90
2019-02-21T16:49:30.898Z,99.90
2019-02-21T16:52:01.398Z,99.90
2019-02-21T16:54:31.978Z,99.90
2019-02-21T16:57:02.592Z,99.90
2019-02-21T16:59:32.633Z,99.90
2019-02-21T17:02:03.066Z,99.90
2019-02-21T17:04:33.494Z,99.90
2019-02-21T17:07:13.310Z,99.90
2019-02-21T17:09:37.131Z,99.90
2019-02-21T17:12:08.044Z,99.90
2019-02-21T17:14:38.702Z,99.90
2019-02-21T17:17:09.408Z,99.90
2019-02-21T17:19:40.368Z,99.90
2019-02-21T17:22:11.335Z,99.90
2019-02-21T17:24:42.026Z,99.90
2019-02-21T17:27:12.271Z,99.90
2019-02-21T17:29:43.014Z,99.90
2019-02-21T17:32:13.714Z,99.90
2019-02-21T17:34:43.955Z,99.90
2019-02-21T17:37:24.626Z,99.90
2019-02-21T17:39:47.643Z,99.90
2019-02-21T17:42:17.936Z,99.90
2019-02-21T17:44:48.533Z,99.90
2019-02-21T17:47:19.330Z,99.90
2019-02-21T17:49:49.426Z,99.90
2019-02-21T17:52:20.328Z,99.90
2019-02-21T17:54:51.129Z,99.90
2019-02-21T17:57:21.770Z,99.90
2019-02-21T17:59:52.376Z,99.90
2019-02-21T18:02:22.542Z,99.90
2019-02-21T18:04:53.174Z,99.90
2019-02-21T18:07:23.516Z,99.90
2019-02-21T18:09:54.246Z,99.90
2019-02-21T18:12:25.171Z,99.90
2019-02-21T18:14:57.601Z,99.90
2019-02-21T18:17:28.071Z,99.90
2019-02-21T18:19:58.696Z,99.90
2019-02-21T18:22:29.585Z,99.90
2019-02-21T18:25:00.550Z,99.90
2019-02-21T18:27:32.331Z,99.90
2019-02-21T18:30:03.387Z,99.90
2019-02-21T18:32:35.822Z,99.90
2019-02-21T18:35:06.681Z,99.90
2019-02-21T18:37:46.917Z,99.90
2019-02-21T18:40:17.333Z,99.90
2019-02-21T18:42:44.493Z,99.90
2019-02-21T18:45:14.784Z,99.90
2019-02-21T18:47:45.612Z,99.90
2019-02-21T18:50:16.661Z,99.90
2019-02-21T18:52:47.745Z,99.90
2019-02-21T18:55:18.501Z,99.90
2019-02-21T18:57:48.814Z,99.90
2019-02-21T19:00:20.199Z,99.90
2019-02-21T19:02:51.111Z,99.90
2019-02-21T19:05:21.543Z,99.90
2019-02-21T19:08:02.109Z,99.90
2019-02-21T19:10:24.309Z,99.90
2019-02-21T19:12:55.009Z,99.90
2019-02-21T19:15:26.619Z,99.90
2019-02-21T19:17:57.285Z,99.90
2019-02-21T19:20:27.965Z,99.90
2019-02-21T19:22:58.699Z,99.90
2019-02-21T19:25:29.049Z,99.90
2019-02-21T19:27:59.806Z,99.90
2019-02-21T19:30:33.578Z,99.90
2019-02-21T19:33:04.535Z,99.90
2019-02-21T19:35:34.986Z,99.90
2019-02-21T19:38:10.365Z,99.90
2019-02-21T19:40:38.306Z,99.90
2019-02-21T19:43:09.263Z,99.90
2019-02-21T19:45:39.393Z,99.90
2019-02-21T19:48:09.738Z,99.90
2019-02-21T19:50:41.406Z,99.90
2019-02-21T19:53:14.340Z,99.90
2019-02-21T19:55:44.566Z,99.90
2019-02-21T19:58:15.804Z,99.90
2019-02-21T20:00:47.113Z,99.90
2019-02-21T20:03:17.901Z,99.90
2019-02-21T20:05:48.596Z,99.90
2019-02-21T20:08:21.633Z,99.90
2019-02-21T20:10:51.233Z,99.90
2019-02-21T20:13:21.650Z,99.90
2019-02-21T20:15:52.065Z,99.90
2019-02-21T20:18:23.064Z,99.90
2019-02-21T20:20:54.066Z,99.90
2019-02-21T20:23:24.734Z,99.90
2019-02-21T20:25:55.329Z,99.90
2019-02-21T20:28:25.956Z,99.90
2019-02-21T20:30:56.189Z,99.90
2019-02-21T20:33:26.841Z,99.90
2019-02-21T20:35:57.847Z,99.90
2019-02-21T20:38:32.148Z,99.90
2019-02-21T20:41:01.629Z,99.90
2019-02-21T20:43:32.408Z,99.90
2019-02-21T20:46:03.016Z,99.90
2019-02-21T20:48:33.591Z,99.90
2019-02-21T20:51:04.366Z,99.90
2019-02-21T20:53:35.530Z,99.90
2019-02-21T20:56:06.290Z,99.90
2019-02-21T20:58:36.836Z,99.90
2019-02-21T21:01:07.690Z,99.90
2019-02-21T21:03:38.184Z,99.90
2019-02-21T21:06:08.812Z,99.90
2019-02-21T21:08:42.959Z,99.90
2019-02-21T21:11:11.121Z,99.90
2019-02-21T21:13:44.013Z,99.90
2019-02-21T21:16:14.077Z,99.90
2019-02-21T21:18:50.966Z,99.90
2019-02-21T21:21:37.070Z,99.90
2019-02-21T21:30:57.378Z,99.90
2019-02-21T21:33:43.186Z,99.90
2019-02-21T21:43:04.160Z,99.90
2019-02-21T21:45:53.462Z,99.90
2019-02-21T22:01:12.923Z,99.90
2019-02-21T22:04:02.103Z,99.90
2019-02-21T23:49:44.344Z,99.90
2019-02-21T23:52:34.050Z,99.90
